Time;durP1;ratioP1;P1;durP2;ratioP2;P2;SDS_P1;SDS_P2;PMS_P1;PMS_P2;Temp;Humidity;BMP_temperature;BMP_pressure;BME280_temperature;BME280_humidity;BME280_pressure;Samples;Min_cycle;Max_cycle;Signal;HPM_P1;HPM_P2
2021/12/05 00:22:45;;;;;;;31.88;10.25;;;3.90;99.90;;;;;;5024183;28;20080;-70
2021/12/05 00:25:21;;;;;;;24.80;9.63;;;3.90;99.90;;;;;;4983214;28;250543;-70
2021/12/05 00:27:58;;;;;;;26.50;10.10;;;3.90;99.90;;;;;;5017206;28;20052;-70
2021/12/05 00:49:12;;;;;;;22.35;9.30;;;3.80;99.90;;;;;;5008377;28;270440;-70
2021/12/05 01:05:12;;;;;;;27.75;9.65;;;3.80;99.90;;;;;;5010782;28;273295;-70
2021/12/05 01:10:17;;;;;;;22.08;9.25;;;3.80;99.90;;;;;;5016844;28;269175;-70
2021/12/05 01:15:24;;;;;;;22.98;9.05;;;3.80;99.90;;;;;;5018114;28;275752;-69
2021/12/05 01:20:25;;;;;;;23.77;9.13;;;3.80;99.90;;;;;;5000522;28;265980;-70
2021/12/05 01:22:58;;;;;;;26.38;9.60;;;3.80;99.90;;;;;;5023292;28;20056;-69
2021/12/05 01:28:11;;;;;;;19.90;9.07;;;3.80;99.90;;;;;;5023054;28;20045;-70
2021/12/05 01:35:54;;;;;;;20.00;8.63;;;3.70;99.90;;;;;;5003886;28;20048;-70
2021/12/05 01:38:48;;;;;;;23.50;8.80;;;3.80;99.90;;;;;;4981739;28;262733;-70
2021/12/05 01:42:05;;;;;;;24.13;9.93;;;3.80;99.90;;;;;;5028602;28;20045;-70
2021/12/05 02:43:15;;;;;;;22.85;8.68;;;4.10;99.90;;;;;;4983036;28;275555;-68
2021/12/05 02:45:48;;;;;;;27.58;8.95;;;4.10;99.90;;;;;;5001305;28;20092;-69
2021/12/05 02:48:15;;;;;;;22.98;9.40;;;4.10;99.90;;;;;;4988954;28;116793;-68
2021/12/05 02:50:45;;;;;;;26.75;10.30;;;4.00;99.90;;;;;;5011876;28;20470;-69
2021/12/05 02:53:21;;;;;;;27.50;11.10;;;4.10;99.90;;;;;;4967454;28;238834;-68
2021/12/05 02:55:50;;;;;;;26.85;10.80;;;4.10;99.90;;;;;;5018420;28;20515;-70
2021/12/05 02:58:29;;;;;;;26.00;10.88;;;4.10;99.90;;;;;;5004403;28;258099;-68
2021/12/05 03:03:30;;;;;;;26.02;10.98;;;4.10;99.90;;;;;;4991816;28;259787;-69
2021/12/05 03:06:05;;;;;;;32.92;11.48;;;4.10;99.90;;;;;;5044130;28;20060;-70
2021/12/05 03:08:31;;;;;;;31.70;11.93;;;4.10;99.90;;;;;;5008435;28;257288;-70
2021/12/05 03:11:00;;;;;;;30.40;12.25;;;4.10;99.90;;;;;;5045810;28;20470;-71
2021/12/05 03:13:27;;;;;;;33.30;12.43;;;4.10;99.90;;;;;;5005795;28;264575;-70
2021/12/05 03:15:56;;;;;;;33.22;13.77;;;4.10;99.90;;;;;;5048960;28;20057;-70
2021/12/05 03:18:24;;;;;;;33.00;13.85;;;4.10;99.90;;;;;;5002927;28;256486;-71
2021/12/05 03:20:50;;;;;;;31.80;14.30;;;4.10;99.90;;;;;;5015594;28;20068;-71
2021/12/05 03:23:17;;;;;;;37.03;14.75;;;4.10;99.90;;;;;;5001693;28;274869;-70
2021/12/05 03:25:43;;;;;;;36.00;15.10;;;4.10;99.90;;;;;;5049705;28;20641;-70
2021/12/05 03:28:10;;;;;;;30.85;13.90;;;4.10;99.90;;;;;;5010909;28;257667;-68
2021/12/05 03:30:37;;;;;;;41.20;15.43;;;4.10;99.90;;;;;;5032544;28;20058;-70
2021/12/05 03:33:04;;;;;;;36.30;15.63;;;4.10;99.90;;;;;;4997607;28;20596;-71
2021/12/05 03:35:30;;;;;;;41.30;16.05;;;4.00;99.90;;;;;;5014547;28;267478;-68
2021/12/05 03:37:58;;;;;;;33.67;16.15;;;4.00;99.90;;;;;;4996759;28;20084;-70
2021/12/05 03:40:28;;;;;;;34.20;17.08;;;4.00;99.90;;;;;;5003548;28;20164;-71
2021/12/05 03:42:57;;;;;;;34.50;16.17;;;4.00;99.90;;;;;;4996815;28;20054;-70
2021/12/05 03:45:28;;;;;;;35.85;17.08;;;4.00;99.90;;;;;;5012891;28;268774;-70
2021/12/05 03:47:56;;;;;;;42.97;18.50;;;4.00;99.90;;;;;;4998731;28;20046;-70
2021/12/05 03:50:23;;;;;;;40.67;19.17;;;4.00;99.90;;;;;;5013587;28;256356;-71
2021/12/05 03:52:49;;;;;;;34.58;17.58;;;4.00;99.90;;;;;;4996745;28;20058;-70
2021/12/05 03:55:16;;;;;;;41.03;18.65;;;4.00;99.90;;;;;;5016312;28;252373;-70
2021/12/05 03:57:43;;;;;;;42.25;18.00;;;4.00;99.90;;;;;;4998022;28;20054;-71
2021/12/05 04:00:19;;;;;;;35.35;18.48;;;4.00;99.90;;;;;;5011159;28;261435;-70
2021/12/05 04:02:50;;;;;;;49.92;19.58;;;4.00;99.90;;;;;;5000208;28;20065;-70
2021/12/05 04:05:17;;;;;;;40.55;18.35;;;4.00;99.90;;;;;;4995880;28;248502;-70
2021/12/05 04:07:43;;;;;;;45.72;19.10;;;3.90;99.90;;;;;;5001797;28;20066;-70
2021/12/05 04:10:12;;;;;;;41.33;18.23;;;3.90;99.90;;;;;;5019385;28;259398;-70
2021/12/05 04:12:38;;;;;;;36.17;18.80;;;3.90;99.90;;;;;;5001924;28;20061;-70
2021/12/05 04:15:06;;;;;;;46.15;18.02;;;3.90;99.90;;;;;;5010895;28;54956;-70
2021/12/05 04:17:32;;;;;;;41.92;18.92;;;3.90;99.90;;;;;;5001853;28;20050;-71
2021/12/05 04:19:59;;;;;;;35.00;17.33;;;3.90;99.90;;;;;;5006063;28;178362;-70
2021/12/05 04:22:25;;;;;;;43.75;18.52;;;3.90;99.90;;;;;;5000036;28;20428;-70
2021/12/05 04:24:51;;;;;;;44.35;17.90;;;3.90;99.90;;;;;;5002547;28;255746;-71
2021/12/05 04:27:17;;;;;;;35.33;17.60;;;3.90;99.90;;;;;;5006790;28;20057;-70
2021/12/05 04:29:44;;;;;;;34.53;16.42;;;3.90;99.90;;;;;;5006787;28;256571;-70
2021/12/05 04:32:10;;;;;;;33.13;16.00;;;3.90;99.90;;;;;;5008311;28;20060;-70
2021/12/05 04:34:36;;;;;;;32.33;14.82;;;3.90;99.90;;;;;;5003607;28;152510;-71
2021/12/05 04:37:02;;;;;;;31.60;14.82;;;3.90;99.90;;;;;;5001205;28;20057;-70
2021/12/05 04:39:29;;;;;;;40.53;15.85;;;3.80;99.90;;;;;;5007986;28;252435;-70
2021/12/05 04:41:56;;;;;;;33.78;14.63;;;3.80;99.90;;;;;;5012396;28;20057;-70
2021/12/05 04:44:23;;;;;;;34.78;14.38;;;3.80;99.90;;;;;;4995699;28;200739;-71
2021/12/05 04:46:50;;;;;;;36.53;14.15;;;3.80;99.90;;;;;;5012728;28;20057;-70
2021/12/05 04:49:16;;;;;;;35.58;14.02;;;3.80;99.90;;;;;;4989972;28;20048;-70
2021/12/05 04:51:44;;;;;;;37.33;13.10;;;3.80;99.90;;;;;;4989318;28;20054;-70
2021/12/05 04:54:13;;;;;;;27.92;13.45;;;3.70;99.90;;;;;;4997555;28;22925;-71
2021/12/05 04:56:40;;;;;;;37.30;13.20;;;3.70;99.90;;;;;;5005435;28;20053;-70
2021/12/05 04:59:13;;;;;;;31.63;12.45;;;3.70;99.90;;;;;;4984641;28;149647;-70
2021/12/05 05:01:41;;;;;;;34.53;12.07;;;3.70;99.90;;;;;;4995156;28;20494;-71
2021/12/05 05:04:18;;;;;;;35.90;11.68;;;3.70;99.90;;;;;;4975209;28;221059;-70
2021/12/05 05:06:45;;;;;;;35.83;11.75;;;3.70;99.90;;;;;;5005453;28;20058;-70
2021/12/05 05:09:11;;;;;;;31.08;11.10;;;3.70;99.90;;;;;;4998708;28;244948;-70
2021/12/05 05:11:39;;;;;;;34.83;11.20;;;3.70;99.90;;;;;;5007311;28;20042;-70
2021/12/05 05:14:05;;;;;;;33.47;10.50;;;3.60;99.90;;;;;;5001875;28;210057;-70
2021/12/05 05:16:31;;;;;;;32.40;10.60;;;3.60;99.90;;;;;;5006844;28;20092;-71
2021/12/05 05:18:59;;;;;;;30.30;10.98;;;3.60;99.90;;;;;;4999719;28;25395;-71
2021/12/05 05:24:16;;;;;;;23.50;9.23;;;3.60;99.90;;;;;;4993761;28;263913;-71
2021/12/05 05:46:05;;;;;;;31.23;9.88;;;3.50;99.90;;;;;;5026187;28;20077;-70
2021/12/05 05:51:11;;;;;;;30.52;9.02;;;3.40;99.90;;;;;;4995389;28;20042;-70
2021/12/05 05:53:38;;;;;;;24.05;8.65;;;3.40;99.90;;;;;;4982990;28;246616;-69
2021/12/05 05:56:10;;;;;;;28.08;8.88;;;3.40;99.90;;;;;;5024081;28;20507;-69
2021/12/05 05:59:04;;;;;;;24.27;9.30;;;3.40;99.90;;;;;;4987215;28;261357;-69
2021/12/05 06:04:01;;;;;;;27.80;9.52;;;3.30;99.90;;;;;;4980555;28;173401;-69
2021/12/05 06:06:27;;;;;;;28.08;9.55;;;3.30;99.90;;;;;;5014037;28;20058;-69
2021/12/05 06:08:54;;;;;;;25.98;8.85;;;3.30;99.90;;;;;;4991501;28;20049;-69
2021/12/05 06:11:20;;;;;;;29.83;9.52;;;3.20;99.90;;;;;;5018263;28;20045;-69
2021/12/05 06:13:46;;;;;;;32.05;10.30;;;3.20;99.90;;;;;;4991154;28;260529;-70
2021/12/05 06:16:14;;;;;;;29.02;9.07;;;3.20;99.90;;;;;;5011272;28;20102;-70
2021/12/05 06:18:40;;;;;;;27.77;9.25;;;3.20;99.90;;;;;;5019810;28;140712;-69
2021/12/05 06:21:08;;;;;;;28.58;9.60;;;3.20;99.90;;;;;;4994860;28;20053;-69
2021/12/05 06:23:35;;;;;;;28.70;9.32;;;3.10;99.90;;;;;;4988262;28;200529;-69
2021/12/05 06:26:02;;;;;;;27.80;9.80;;;3.20;99.90;;;;;;5023517;28;20046;-69
2021/12/05 06:28:46;;;;;;;30.70;9.18;;;3.10;99.90;;;;;;4981115;28;259600;-70
2021/12/05 06:31:27;;;;;;;28.88;8.93;;;3.20;99.90;;;;;;5009708;28;20057;-69
2021/12/05 06:47:43;;;;;;;28.08;9.73;;;3.20;99.90;;;;;;4965143;28;20061;-69
2021/12/05 06:50:09;;;;;;;28.30;9.82;;;3.20;99.90;;;;;;4945677;28;73121;-69
2021/12/05 06:52:35;;;;;;;30.17;9.35;;;3.20;99.90;;;;;;4981233;28;20659;-69
2021/12/05 06:55:02;;;;;;;30.35;9.88;;;3.20;99.90;;;;;;4968672;28;20061;-69
2021/12/05 06:57:28;;;;;;;27.55;9.43;;;3.20;99.90;;;;;;4981769;28;20085;-69
2021/12/05 06:59:54;;;;;;;26.38;9.15;;;3.20;99.90;;;;;;4951024;28;139274;-70
2021/12/05 07:02:20;;;;;;;31.90;9.65;;;3.20;99.90;;;;;;4980982;28;20706;-70
2021/12/05 07:07:36;;;;;;;30.63;10.13;;;3.20;99.90;;;;;;4923968;29;20066;-70
2021/12/05 07:10:05;;;;;;;26.60;9.13;;;3.30;99.90;;;;;;4924608;28;105080;-70
2021/12/05 07:15:18;;;;;;;26.38;9.77;;;3.30;99.90;;;;;;4946646;28;132532;-70
2021/12/05 07:25:48;;;;;;;30.15;10.45;;;3.30;99.90;;;;;;4938421;28;20424;-70
2021/12/05 07:42:11;;;;;;;30.15;11.77;;;3.50;99.90;;;;;;4941134;28;20059;-70
2021/12/05 07:44:37;;;;;;;28.88;12.25;;;3.50;99.90;;;;;;4963880;28;56920;-69
2021/12/05 07:47:03;;;;;;;29.63;11.93;;;3.50;99.90;;;;;;5020883;28;20164;-70
2021/12/05 07:49:30;;;;;;;27.90;11.68;;;3.50;99.90;;;;;;5013760;28;257303;-70
2021/12/05 07:51:56;;;;;;;30.52;12.48;;;3.50;99.90;;;;;;5016886;28;20049;-69
2021/12/05 07:57:02;;;;;;;38.10;12.30;;;3.60;99.90;;;;;;5023789;28;20046;-70
2021/12/05 08:15:48;;;;;;;30.85;12.73;;;3.70;99.90;;;;;;4985795;28;20557;-70
2021/12/05 08:18:15;;;;;;;35.95;12.23;;;3.70;99.90;;;;;;5011586;28;268392;-69
2021/12/05 08:20:43;;;;;;;36.28;13.25;;;3.70;99.90;;;;;;5037782;28;20057;-70
2021/12/05 08:23:12;;;;;;;35.83;12.90;;;3.70;99.90;;;;;;5003611;28;256585;-69
2021/12/05 08:25:40;;;;;;;31.63;12.38;;;3.70;99.90;;;;;;5056162;28;20085;-70
2021/12/05 08:28:48;;;;;;;32.22;12.15;;;3.70;99.90;;;;;;5024217;28;20505;-70
2021/12/05 08:31:16;;;;;;;32.90;12.77;;;3.80;99.90;;;;;;4969407;28;20049;-70
2021/12/05 09:20:10;;;;;;;32.17;13.18;;;4.10;99.90;;;;;;4972933;28;241738;-70
2021/12/05 09:23:09;;;;;;;36.88;14.32;;;4.20;99.90;;;;;;5000633;28;20046;-71
2021/12/05 10:12:43;;;;;;;24.70;11.43;;;4.60;99.90;;;;;;5015289;28;20056;-70
2021/12/05 10:37:56;;;;;;;23.75;10.68;;;4.70;99.90;;;;;;4962152;28;20054;-70
2021/12/05 10:40:42;;;;;;;20.55;10.15;;;4.80;99.90;;;;;;4943101;28;278824;-69
2021/12/05 10:43:12;;;;;;;22.20;10.50;;;4.80;99.90;;;;;;4946248;28;20074;-70
2021/12/05 10:45:44;;;;;;;23.17;10.90;;;4.70;99.90;;;;;;4938957;28;20050;-70
2021/12/05 10:48:23;;;;;;;23.02;10.45;;;4.70;99.90;;;;;;4935864;28;58776;-70
2021/12/05 10:50:53;;;;;;;22.23;10.63;;;4.80;99.90;;;;;;4979167;28;20417;-70
2021/12/05 10:53:39;;;;;;;22.93;10.07;;;4.80;99.90;;;;;;4968485;28;57904;-69
2021/12/05 10:56:17;;;;;;;29.50;11.02;;;4.80;99.90;;;;;;4961979;28;20507;-69
2021/12/05 10:58:48;;;;;;;22.67;10.85;;;4.80;99.90;;;;;;4953256;28;144420;-70
2021/12/05 11:01:35;;;;;;;26.42;11.73;;;4.80;99.90;;;;;;4978974;28;20080;-70
2021/12/05 11:04:03;;;;;;;24.02;10.32;;;4.80;99.90;;;;;;4943948;28;236812;-70
2021/12/05 11:06:34;;;;;;;20.42;9.68;;;4.80;99.90;;;;;;4973947;28;20062;-70
2021/12/05 11:09:13;;;;;;;20.58;9.65;;;4.90;99.90;;;;;;4984992;28;136060;-70
2021/12/05 11:11:43;;;;;;;23.42;9.77;;;4.90;99.90;;;;;;5021916;28;20040;-72
2021/12/05 11:14:14;;;;;;;20.83;9.47;;;4.90;99.90;;;;;;5011645;28;252811;-70
2021/12/05 11:16:47;;;;;;;22.00;10.15;;;4.90;99.90;;;;;;5035410;28;20057;-70
2021/12/05 11:19:40;;;;;;;22.30;10.30;;;4.90;99.90;;;;;;5018617;28;270167;-71
2021/12/05 11:22:43;;;;;;;18.35;10.02;;;4.90;99.90;;;;;;5039114;28;20080;-71
2021/12/05 11:25:29;;;;;;;17.73;9.05;;;4.90;99.90;;;;;;4964998;28;141644;-71
2021/12/05 11:28:01;;;;;;;21.05;9.00;;;4.90;99.90;;;;;;4946058;28;20059;-70
2021/12/05 11:30:32;;;;;;;;;;;4.90;99.90;;;;;;4955735;28;90070;-70
2021/12/05 11:33:01;;;;;;;16.20;7.93;;;4.90;99.90;;;;;;4943893;28;21567;-70
2021/12/05 11:35:32;;;;;;;22.73;8.85;;;4.90;99.90;;;;;;4980025;28;27503;-71
2021/12/05 11:38:13;;;;;;;22.30;8.85;;;4.90;99.90;;;;;;4977972;28;20058;-71
2021/12/05 11:40:51;;;;;;;18.13;8.63;;;5.00;99.90;;;;;;4949599;28;20065;-70
2021/12/05 11:43:23;;;;;;;20.75;9.13;;;5.00;99.90;;;;;;4951064;28;48982;-71
2021/12/05 11:45:55;;;;;;;20.05;8.50;;;5.00;99.90;;;;;;4991712;28;20046;-70
2021/12/05 11:48:30;;;;;;;23.00;9.15;;;5.00;99.90;;;;;;4949135;28;199542;-70
2021/12/05 11:50:58;;;;;;;27.83;9.15;;;5.00;99.90;;;;;;4977646;28;20058;-70
2021/12/05 11:53:44;;;;;;;19.33;8.70;;;5.00;99.90;;;;;;4980219;28;267865;-71
2021/12/05 11:56:18;;;;;;;22.17;8.50;;;5.00;99.90;;;;;;4972640;28;20054;-70
2021/12/05 11:58:45;;;;;;;18.58;8.55;;;5.00;99.90;;;;;;4971522;28;134089;-70
2021/12/05 12:01:14;;;;;;;21.63;8.10;;;5.00;99.90;;;;;;4991818;28;20062;-70
2021/12/05 12:03:41;;;;;;;21.80;8.43;;;5.10;99.90;;;;;;4974175;28;100066;-70
2021/12/05 12:06:08;;;;;;;22.23;8.57;;;5.10;99.90;;;;;;5014761;28;20061;-70
2021/12/05 12:08:35;;;;;;;22.65;8.32;;;5.10;99.90;;;;;;4980653;28;275188;-71
2021/12/05 12:11:02;;;;;;;20.45;9.10;;;5.10;99.90;;;;;;4963473;28;20503;-70
2021/12/05 12:13:35;;;;;;;19.93;9.23;;;5.10;99.90;;;;;;4984692;28;273042;-70
2021/12/05 12:16:07;;;;;;;17.35;8.77;;;5.10;99.90;;;;;;5002190;28;20519;-69
2021/12/05 12:18:39;;;;;;;17.63;8.30;;;5.10;99.90;;;;;;4985230;28;268309;-70
2021/12/05 12:21:20;;;;;;;26.45;9.48;;;5.10;99.90;;;;;;4993301;28;20069;-70
2021/12/05 12:23:52;;;;;;;21.63;8.40;;;5.10;99.90;;;;;;4986028;28;68046;-70
2021/12/05 12:26:19;;;;;;;19.35;9.02;;;5.10;99.90;;;;;;4990412;28;20979;-70
2021/12/05 12:28:45;;;;;;;19.73;8.65;;;5.20;99.90;;;;;;4990925;28;227268;-69
2021/12/05 12:31:25;;;;;;;24.75;9.35;;;5.20;99.90;;;;;;5015906;28;20054;-70
2021/12/05 12:33:55;;;;;;;20.58;9.73;;;5.20;99.90;;;;;;4996771;28;114967;-70
2021/12/05 12:37:01;;;;;;;19.00;8.98;;;5.30;99.90;;;;;;5019684;28;20042;-70
2021/12/05 12:39:36;;;;;;;22.23;9.75;;;5.30;99.90;;;;;;4978216;28;170088;-70
2021/12/05 12:42:15;;;;;;;22.95;10.52;;;5.50;99.90;;;;;;4985443;28;20043;-70
2021/12/05 12:45:21;;;;;;;28.77;12.50;;;5.80;99.90;;;;;;4972166;28;217402;-70
2021/12/05 12:47:54;;;;;;;29.27;12.98;;;6.50;99.90;;;;;;4905476;29;20060;-70
2021/12/05 12:50:34;;;;;;;23.67;10.80;;;7.60;99.90;;;;;;4914949;29;21630;-70
2021/12/05 12:53:14;;;;;;;16.30;9.40;;;8.10;99.90;;;;;;4925274;29;20059;-69
2021/12/05 12:55:49;;;;;;;19.80;9.57;;;8.00;99.90;;;;;;4902424;29;20467;-70
2021/12/05 12:58:49;;;;;;;22.60;9.05;;;7.70;99.90;;;;;;4913141;29;214162;-69
2021/12/05 13:01:48;;;;;;;17.88;8.18;;;7.50;99.90;;;;;;4931067;28;20790;-70
2021/12/05 13:10:04;;;;;;;17.85;7.28;;;7.00;99.90;;;;;;4909213;29;41156;-70
2021/12/05 13:12:44;;;;;;;18.77;7.15;;;6.80;99.90;;;;;;4915151;29;20056;-70
2021/12/05 13:15:16;;;;;;;16.75;8.35;;;6.70;99.90;;;;;;4922895;28;184932;-70
2021/12/05 13:17:50;;;;;;;18.58;7.40;;;6.70;99.90;;;;;;4953990;28;20055;-70
2021/12/05 13:20:53;;;;;;;18.23;7.65;;;6.70;99.90;;;;;;5037437;28;274801;-70
2021/12/05 13:23:21;;;;;;;20.13;7.63;;;6.70;99.90;;;;;;5011134;28;261439;-70
2021/12/05 13:26:26;;;;;;;21.35;7.32;;;6.70;99.90;;;;;;5022200;28;20057;-70
2021/12/05 13:29:13;;;;;;;15.25;7.47;;;6.80;99.90;;;;;;4971532;28;241275;-69
2021/12/05 13:31:46;;;;;;;16.05;7.40;;;6.70;99.90;;;;;;4995047;28;20045;-70
2021/12/05 13:34:26;;;;;;;15.75;6.88;;;6.70;99.90;;;;;;4988459;28;95078;-70
2021/12/05 13:36:53;;;;;;;19.48;6.88;;;6.60;99.90;;;;;;5007176;28;20061;-70
2021/12/05 13:39:54;;;;;;;18.13;6.88;;;6.50;99.90;;;;;;4998145;28;37519;-69
2021/12/05 13:42:36;;;;;;;16.90;6.85;;;6.50;99.90;;;;;;5008093;28;20057;-70
2021/12/05 13:45:11;;;;;;;17.67;7.00;;;6.40;99.90;;;;;;5002610;28;235671;-70
2021/12/05 13:47:39;;;;;;;14.27;7.00;;;6.40;99.90;;;;;;4991023;28;20068;-70
2021/12/05 13:50:29;;;;;;;15.98;7.72;;;6.40;99.90;;;;;;5001784;28;204655;-70
2021/12/05 13:53:01;;;;;;;19.65;7.53;;;6.30;99.90;;;;;;5001543;28;20034;-70
2021/12/05 13:55:49;;;;;;;15.30;7.78;;;6.20;99.90;;;;;;4992792;28;32403;-70
2021/12/05 13:58:21;;;;;;;15.57;7.53;;;6.20;99.90;;;;;;5007005;28;107079;-71
2021/12/05 14:00:58;;;;;;;17.95;7.78;;;6.20;99.90;;;;;;5018765;28;20057;-70
2021/12/05 14:04:01;;;;;;;16.60;8.75;;;6.10;99.90;;;;;;4975012;28;205399;-70
2021/12/05 14:06:36;;;;;;;18.52;8.25;;;6.10;99.90;;;;;;5030142;28;20049;-70
2021/12/05 14:09:07;;;;;;;17.60;8.07;;;6.00;99.90;;;;;;5027114;28;258269;-70
2021/12/05 14:11:36;;;;;;;20.48;8.18;;;5.90;99.90;;;;;;5036089;28;20057;-71
2021/12/05 14:14:07;;;;;;;18.58;8.70;;;5.90;99.90;;;;;;5022950;28;20045;-71
2021/12/05 14:16:41;;;;;;;18.95;8.52;;;5.90;99.90;;;;;;5039238;28;20058;-71
2021/12/05 14:19:14;;;;;;;19.27;8.27;;;5.90;99.90;;;;;;5024487;28;199634;-71
2021/12/05 14:21:46;;;;;;;19.52;8.57;;;5.90;99.90;;;;;;5029544;28;20068;-71
2021/12/05 14:24:13;;;;;;;18.10;8.82;;;5.80;99.90;;;;;;5019320;28;110829;-70
2021/12/05 14:26:40;;;;;;;16.52;9.02;;;5.80;99.90;;;;;;5027277;28;20060;-71
2021/12/05 14:29:13;;;;;;;18.25;9.55;;;5.80;99.90;;;;;;5011517;28;263552;-71
2021/12/05 14:31:49;;;;;;;20.33;8.88;;;5.80;99.90;;;;;;5056250;28;20046;-71
2021/12/05 14:34:17;;;;;;;18.00;9.13;;;5.80;99.90;;;;;;5011628;28;214899;-70
2021/12/05 14:36:48;;;;;;;18.85;8.77;;;5.80;99.90;;;;;;5029666;28;20049;-70
2021/12/05 14:39:22;;;;;;;17.67;9.10;;;5.80;99.90;;;;;;5020844;28;251694;-70
2021/12/05 14:41:51;;;;;;;21.55;9.50;;;5.70;99.90;;;;;;5033113;28;20049;-70
2021/12/05 14:44:18;;;;;;;20.27;9.00;;;5.70;99.90;;;;;;5007944;28;266153;-71
2021/12/05 14:47:09;;;;;;;17.75;9.05;;;5.70;99.90;;;;;;5017560;28;20064;-70
2021/12/05 14:49:39;;;;;;;19.10;9.10;;;5.70;99.90;;;;;;4980021;28;135505;-71
2021/12/05 14:52:14;;;;;;;21.27;9.43;;;5.70;99.90;;;;;;5003245;28;20058;-71
2021/12/05 14:54:41;;;;;;;19.42;9.07;;;5.70;99.90;;;;;;5007723;28;53886;-71
2021/12/05 14:57:13;;;;;;;17.58;9.32;;;5.70;99.90;;;;;;5008900;28;20403;-71
2021/12/05 14:59:42;;;;;;;18.90;9.50;;;5.70;99.90;;;;;;5003398;28;276285;-70
2021/12/05 15:02:09;;;;;;;23.27;11.18;;;5.70;99.90;;;;;;5006736;28;20605;-71
2021/12/05 15:04:40;;;;;;;22.40;10.38;;;5.60;99.90;;;;;;4973498;28;269431;-71
2021/12/05 15:07:07;;;;;;;21.35;9.90;;;5.60;99.90;;;;;;4999023;28;20054;-70
2021/12/05 15:09:36;;;;;;;18.73;9.65;;;5.60;99.90;;;;;;5004270;28;42673;-71
2021/12/05 15:12:04;;;;;;;20.77;9.85;;;5.50;99.90;;;;;;5006949;28;20050;-71
2021/12/05 15:14:32;;;;;;;22.80;10.10;;;5.50;99.90;;;;;;5007555;28;43455;-71
2021/12/05 15:17:00;;;;;;;21.40;9.82;;;5.50;99.90;;;;;;5009390;28;20057;-71
2021/12/05 15:19:27;;;;;;;21.27;10.35;;;5.50;99.90;;;;;;4985245;28;97937;-70
2021/12/05 15:21:54;;;;;;;27.17;10.60;;;5.50;99.90;;;;;;5014917;28;20060;-71
2021/12/05 15:24:25;;;;;;;18.98;9.52;;;5.50;99.90;;;;;;4994826;28;44409;-71
2021/12/05 15:26:53;;;;;;;19.83;10.02;;;5.40;99.90;;;;;;5001997;28;20046;-71
2021/12/05 15:29:19;;;;;;;23.20;11.43;;;5.40;99.90;;;;;;4998613;28;268344;-71
2021/12/05 15:31:45;;;;;;;20.50;10.15;;;5.40;99.90;;;;;;5016362;28;20069;-71
2021/12/05 15:34:17;;;;;;;21.35;9.93;;;5.40;99.90;;;;;;5001809;28;261782;-71
2021/12/05 15:36:44;;;;;;;22.25;10.15;;;5.40;99.90;;;;;;5002302;28;20045;-71
2021/12/05 15:39:19;;;;;;;25.02;10.73;;;5.30;99.90;;;;;;4995830;28;122684;-71
2021/12/05 15:41:47;;;;;;;23.77;11.00;;;5.30;99.90;;;;;;4989354;28;20057;-71
2021/12/05 15:44:36;;;;;;;21.27;10.73;;;5.30;99.90;;;;;;4995343;28;194281;-71
2021/12/05 15:47:07;;;;;;;24.27;10.60;;;5.30;99.90;;;;;;5007721;28;20454;-71
2021/12/05 15:49:53;;;;;;;22.05;10.65;;;5.20;99.90;;;;;;5005257;28;20052;-71
2021/12/05 15:52:38;;;;;;;22.33;10.55;;;5.20;99.90;;;;;;5006235;28;20522;-71
2021/12/05 15:55:12;;;;;;;22.17;10.55;;;5.20;99.90;;;;;;5009204;28;256702;-71
2021/12/05 15:57:41;;;;;;;24.08;11.65;;;5.20;99.90;;;;;;5035181;28;20442;-71
2021/12/05 16:00:16;;;;;;;23.65;11.75;;;5.20;99.90;;;;;;5009168;28;262765;-71
2021/12/05 16:02:47;;;;;;;21.33;11.77;;;5.10;99.90;;;;;;5007888;28;20057;-71
2021/12/05 16:05:21;;;;;;;21.10;11.88;;;5.10;99.90;;;;;;5007915;28;254177;-71
2021/12/05 16:07:49;;;;;;;19.80;11.00;;;5.10;99.90;;;;;;5025504;28;20049;-70
2021/12/05 16:10:25;;;;;;;25.15;11.63;;;5.10;99.90;;;;;;5018350;28;71853;-70
2021/12/05 16:12:53;;;;;;;24.23;11.98;;;5.10;99.90;;;;;;5026050;28;20050;-71
2021/12/05 16:15:25;;;;;;;22.65;11.95;;;5.10;99.90;;;;;;5023273;28;160951;-71
2021/12/05 16:18:00;;;;;;;23.65;12.38;;;5.00;99.90;;;;;;5034471;28;20050;-71
2021/12/05 16:20:35;;;;;;;22.27;11.10;;;5.00;99.90;;;;;;5043785;28;20052;-70
2021/12/05 16:23:40;;;;;;;25.98;12.45;;;5.00;99.90;;;;;;5062753;28;20049;-71
2021/12/05 16:26:20;;;;;;;23.25;12.88;;;5.00;99.90;;;;;;4941508;28;20045;-71
2021/12/05 16:29:17;;;;;;;28.50;13.43;;;5.00;99.90;;;;;;4969714;28;125470;-71
2021/12/05 16:31:57;;;;;;;24.80;12.85;;;5.00;99.90;;;;;;4898666;29;20056;-70
2021/12/05 16:34:31;;;;;;;25.65;12.40;;;5.00;99.90;;;;;;4888873;29;117533;-70
2021/12/05 16:37:02;;;;;;;27.67;12.73;;;5.00;99.90;;;;;;4895251;29;20059;-72
2021/12/05 16:39:37;;;;;;;23.75;12.77;;;5.00;99.90;;;;;;4892220;29;20553;-70
2021/12/05 16:42:11;;;;;;;27.23;12.98;;;5.00;99.90;;;;;;4896982;29;20060;-69
2021/12/05 16:44:41;;;;;;;29.45;14.50;;;5.00;99.90;;;;;;4901438;29;240946;-70
2021/12/05 16:47:19;;;;;;;29.63;14.10;;;4.90;99.90;;;;;;4894574;29;20639;-70
2021/12/05 16:49:48;;;;;;;25.95;14.10;;;4.90;99.90;;;;;;4904684;29;168430;-70
2021/12/05 16:52:34;;;;;;;26.92;14.45;;;5.00;99.90;;;;;;4910541;29;20052;-70
2021/12/05 16:55:10;;;;;;;30.02;14.77;;;4.90;99.90;;;;;;4897502;29;36583;-70
2021/12/05 16:57:44;;;;;;;28.92;15.15;;;5.00;99.90;;;;;;4940698;28;20295;-70
2021/12/05 17:00:15;;;;;;;27.33;14.55;;;5.00;99.90;;;;;;4900308;28;227988;-72
2021/12/05 17:02:51;;;;;;;30.23;16.73;;;4.90;99.90;;;;;;4927856;29;20059;-71
2021/12/05 17:05:26;;;;;;;29.52;14.93;;;4.90;99.90;;;;;;4914344;28;141400;-71
2021/12/05 17:10:58;;;;;;;34.38;15.95;;;4.90;99.90;;;;;;5037453;28;256758;-71
2021/12/05 17:13:44;;;;;;;32.97;15.30;;;4.90;99.90;;;;;;5000930;28;259910;-70
2021/12/05 17:16:13;;;;;;;29.65;15.77;;;4.90;99.90;;;;;;5045631;28;20057;-71
2021/12/05 17:18:56;;;;;;;33.80;17.08;;;4.90;99.90;;;;;;5009634;28;230985;-70
2021/12/05 17:21:26;;;;;;;33.08;17.23;;;4.90;99.90;;;;;;5027900;28;20148;-70
2021/12/05 17:23:52;;;;;;;38.88;17.55;;;4.90;99.90;;;;;;5013898;28;237873;-70
2021/12/05 17:26:28;;;;;;;34.58;18.48;;;4.90;99.90;;;;;;5045486;28;20063;-70
2021/12/05 17:29:09;;;;;;;38.45;19.05;;;4.90;99.90;;;;;;5016428;28;240370;-69
2021/12/05 17:31:42;;;;;;;36.40;18.92;;;4.90;99.90;;;;;;5043257;28;20072;-70
2021/12/05 17:34:11;;;;;;;36.95;19.73;;;4.90;99.90;;;;;;5014881;28;269622;-70
2021/12/05 17:36:41;;;;;;;38.38;19.17;;;4.90;99.90;;;;;;5028285;28;20411;-71
2021/12/05 17:39:10;;;;;;;41.00;20.23;;;4.90;99.90;;;;;;5021928;28;105774;-70
2021/12/05 17:41:38;;;;;;;39.67;20.75;;;4.90;99.90;;;;;;5036750;28;20107;-71
2021/12/05 17:44:05;;;;;;;38.08;20.30;;;4.90;99.90;;;;;;5017589;28;103621;-72
2021/12/05 17:46:34;;;;;;;37.72;20.58;;;4.90;99.90;;;;;;5031451;28;20058;-71
2021/12/05 17:49:04;;;;;;;38.25;19.73;;;4.90;99.90;;;;;;5004987;28;240339;-71
2021/12/05 17:51:37;;;;;;;36.90;20.27;;;4.90;99.90;;;;;;4998923;28;20494;-71
2021/12/05 17:54:10;;;;;;;36.53;20.17;;;4.80;99.90;;;;;;5020213;28;34428;-71
2021/12/05 17:56:40;;;;;;;41.70;21.33;;;4.80;99.90;;;;;;4993399;28;20061;-71
2021/12/05 17:59:13;;;;;;;39.22;20.75;;;4.80;99.90;;;;;;4981573;28;189809;-71
2021/12/05 18:04:30;;;;;;;39.97;23.40;;;4.80;99.90;;;;;;4972861;28;166280;-71
2021/12/05 18:06:58;;;;;;;44.67;23.80;;;4.80;99.90;;;;;;5000020;28;20058;-69
2021/12/05 18:09:24;;;;;;;43.55;23.60;;;4.80;99.90;;;;;;4993254;28;261448;-69
2021/12/05 18:11:51;;;;;;;42.33;22.60;;;4.80;99.90;;;;;;4995592;28;20426;-70
2021/12/05 18:14:17;;;;;;;40.33;21.90;;;4.80;99.90;;;;;;4992791;28;268779;-70
2021/12/05 18:16:45;;;;;;;45.03;22.80;;;4.80;99.90;;;;;;5006992;28;20521;-70
2021/12/05 18:19:15;;;;;;;40.63;23.48;;;4.80;99.90;;;;;;5018478;28;61361;-70
2021/12/05 18:21:42;;;;;;;40.00;22.52;;;4.80;99.90;;;;;;4996911;28;20050;-70
2021/12/05 18:24:11;;;;;;;43.58;22.88;;;4.80;99.90;;;;;;4992331;28;21703;-69
2021/12/05 18:26:38;;;;;;;41.05;22.73;;;4.70;99.90;;;;;;4998716;28;20141;-70
2021/12/05 18:29:07;;;;;;;37.50;23.35;;;4.70;99.90;;;;;;4989932;28;273773;-70
2021/12/05 18:31:35;;;;;;;44.30;22.90;;;4.70;99.90;;;;;;5010753;28;20041;-70
2021/12/05 18:34:08;;;;;;;39.10;22.25;;;4.70;99.90;;;;;;4982528;28;74165;-70
2021/12/05 18:36:38;;;;;;;41.15;23.13;;;4.70;99.90;;;;;;5001536;28;20451;-70
2021/12/05 18:39:08;;;;;;;41.63;22.85;;;4.70;99.90;;;;;;5016752;28;232393;-70
2021/12/05 18:41:36;;;;;;;42.47;24.20;;;4.70;99.90;;;;;;5000516;28;20097;-70
2021/12/05 18:44:07;;;;;;;38.80;22.45;;;4.70;99.90;;;;;;5009251;28;159819;-70
2021/12/05 18:46:33;;;;;;;40.80;22.73;;;4.70;99.90;;;;;;5002209;28;20040;-70
2021/12/05 18:48:59;;;;;;;39.42;23.35;;;4.70;99.90;;;;;;4990135;28;277805;-70
2021/12/05 18:51:25;;;;;;;39.90;23.08;;;4.70;99.90;;;;;;4999600;28;20123;-70